Time;durP1;ratioP1;P1;durP2;ratioP2;P2;SDS_P1;SDS_P2;PMS_P1;PMS_P2;Temp;Humidity;BMP_temperature;BMP_pressure;BME280_temperature;BME280_humidity;BME280_pressure;Samples;Min_cycle;Max_cycle;Signal;HPM_P1;HPM_P2
2024/03/30 00:00:05;;;;;;;6.97;4.43;;;10.40;99.90;;;;;;4988930;28;20454;-66
2024/03/30 00:02:31;;;;;;;7.97;3.90;;;10.40;99.90;;;;;;4975049;28;20231;-66
2024/03/30 00:04:56;;;;;;;11.80;5.30;;;10.40;99.90;;;;;;4975088;28;20423;-66
2024/03/30 00:07:22;;;;;;;9.80;4.70;;;10.40;99.90;;;;;;4974401;28;20176;-67
2024/03/30 00:09:49;;;;;;;11.23;4.53;;;10.40;99.90;;;;;;4990280;23;20605;-69
2024/03/30 00:12:15;;;;;;;9.43;4.63;;;10.40;99.90;;;;;;4974811;28;20420;-67
2024/03/30 00:14:41;;;;;;;8.37;4.20;;;10.30;99.90;;;;;;4974404;28;20482;-69
2024/03/30 00:17:08;;;;;;;14.40;4.10;;;10.30;99.90;;;;;;4954729;28;20420;-64
2024/03/30 00:19:38;;;;;;;7.93;3.70;;;10.30;99.90;;;;;;4955463;28;20189;-65
2024/03/30 00:22:04;;;;;;;5.60;3.87;;;10.30;99.90;;;;;;4955821;28;20428;-65
2024/03/30 00:24:30;;;;;;;9.60;4.60;;;10.30;99.90;;;;;;4955384;29;20770;-66
2024/03/30 00:26:55;;;;;;;7.70;3.53;;;10.30;99.90;;;;;;4954766;28;20691;-67
2024/03/30 00:29:21;;;;;;;11.87;4.30;;;10.20;99.90;;;;;;4955232;29;20721;-65
2024/03/30 00:31:46;;;;;;;14.10;4.23;;;10.30;99.90;;;;;;4955493;28;20374;-65
2024/03/30 00:34:12;;;;;;;8.93;4.33;;;10.30;99.90;;;;;;4955186;29;20577;-65
2024/03/30 00:36:37;;;;;;;12.93;5.00;;;10.20;99.90;;;;;;4954525;29;20169;-65
2024/03/30 00:39:07;;;;;;;15.60;4.83;;;10.20;99.90;;;;;;4955002;29;20200;-66
2024/03/30 00:41:34;;;;;;;12.20;6.57;;;10.10;99.90;;;;;;4968298;28;20178;-66
2024/03/30 00:44:00;;;;;;;7.17;4.10;;;10.00;99.90;;;;;;4974328;28;20424;-65
2024/03/30 00:46:25;;;;;;;14.27;5.30;;;10.10;99.90;;;;;;4961562;28;20955;-68
2024/03/30 00:48:51;;;;;;;13.27;4.30;;;10.10;99.90;;;;;;4954935;29;20443;-64
2024/03/30 00:51:16;;;;;;;11.83;4.67;;;10.10;99.90;;;;;;4954929;29;20298;-65
2024/03/30 00:53:42;;;;;;;11.17;5.10;;;10.10;99.90;;;;;;4954922;28;20200;-66
2024/03/30 00:56:07;;;;;;;12.47;4.20;;;10.10;99.90;;;;;;4954835;29;20645;-65
2024/03/30 00:58:33;;;;;;;11.47;4.30;;;10.10;99.90;;;;;;4954146;29;20213;-65
2024/03/30 01:00:58;;;;;;;11.93;4.77;;;10.10;99.90;;;;;;4959534;28;20184;-65
2024/03/30 01:03:24;;;;;;;16.90;5.57;;;10.10;99.90;;;;;;4974085;28;20215;-64
2024/03/30 01:05:49;;;;;;;11.77;4.40;;;10.20;99.90;;;;;;4974034;28;20586;-66
2024/03/30 01:08:16;;;;;;;13.20;4.17;;;10.20;99.90;;;;;;4973168;28;20176;-65
2024/03/30 01:10:42;;;;;;;21.77;4.53;;;10.20;99.90;;;;;;4971671;28;20231;-66
2024/03/30 01:13:08;;;;;;;11.03;6.67;;;10.20;99.90;;;;;;4954395;29;20942;-66
2024/03/30 01:15:33;;;;;;;16.07;5.20;;;10.20;99.90;;;;;;4953290;28;20169;-65
2024/03/30 01:17:59;;;;;;;17.73;6.70;;;10.20;99.90;;;;;;4953913;28;20763;-65
2024/03/30 01:20:25;;;;;;;14.93;5.27;;;10.20;99.90;;;;;;4954401;29;20271;-65
2024/03/30 01:22:51;;;;;;;15.93;5.37;;;10.30;99.90;;;;;;4956416;28;20188;-66
2024/03/30 01:25:17;;;;;;;12.80;4.60;;;10.20;99.90;;;;;;4973665;28;20192;-65
2024/03/30 01:27:42;;;;;;;15.73;5.20;;;10.20;99.90;;;;;;4972897;28;20555;-65
2024/03/30 01:30:11;;;;;;;17.80;5.50;;;10.20;99.90;;;;;;4973482;28;20443;-64
2024/03/30 01:32:37;;;;;;;16.10;5.73;;;10.10;99.90;;;;;;4958576;28;20196;-65
2024/03/30 01:35:04;;;;;;;15.63;5.90;;;10.10;99.90;;;;;;4954090;28;20534;-65
2024/03/30 01:37:29;;;;;;;11.93;5.40;;;10.10;99.90;;;;;;4953390;29;20447;-65
2024/03/30 01:39:57;;;;;;;28.47;6.23;;;10.00;99.90;;;;;;4954085;29;20440;-65
2024/03/30 01:42:29;;;;;;;14.13;6.00;;;10.00;99.90;;;;;;4966277;28;20537;-66
2024/03/30 01:44:55;;;;;;;19.17;5.47;;;10.00;99.90;;;;;;4973389;28;20439;-65
2024/03/30 01:47:22;;;;;;;15.90;4.60;;;10.10;99.90;;;;;;4962025;28;20438;-65
2024/03/30 01:49:49;;;;;;;18.57;5.40;;;10.10;99.90;;;;;;4954110;28;20459;-66
2024/03/30 01:52:18;;;;;;;19.83;5.00;;;10.10;99.90;;;;;;4954036;28;20417;-65
2024/03/30 01:54:43;;;;;;;19.07;5.27;;;10.10;99.90;;;;;;4952744;28;20491;-67
2024/03/30 01:57:09;;;;;;;19.10;5.00;;;10.20;99.90;;;;;;4953128;29;20468;-65
2024/03/30 01:59:34;;;;;;;17.13;6.30;;;10.20;99.90;;;;;;4953990;28;20208;-65
2024/03/30 02:02:00;;;;;;;21.20;5.00;;;10.20;99.90;;;;;;4959776;28;20172;-65
2024/03/30 02:04:26;;;;;;;21.30;7.07;;;10.30;99.90;;;;;;4973251;28;20214;-66
2024/03/30 02:06:52;;;;;;;20.27;5.03;;;10.30;99.90;;;;;;4970958;28;20459;-65
2024/03/30 02:09:18;;;;;;;20.77;5.70;;;10.30;99.90;;;;;;4973092;28;20223;-65
2024/03/30 02:11:44;;;;;;;22.93;5.13;;;10.30;99.90;;;;;;4973127;28;20172;-65
2024/03/30 02:14:09;;;;;;;28.97;7.30;;;10.40;99.90;;;;;;4973091;28;20195;-65
2024/03/30 02:16:36;;;;;;;24.60;6.30;;;10.30;99.90;;;;;;4971895;28;20533;-65
2024/03/30 02:19:05;;;;;;;18.07;5.60;;;10.30;99.90;;;;;;4971813;28;20196;-65
2024/03/30 02:21:31;;;;;;;21.27;6.90;;;10.40;99.90;;;;;;4973086;28;20944;-65
2024/03/30 02:23:57;;;;;;;25.30;6.23;;;10.50;99.90;;;;;;4972957;28;20467;-65
2024/03/30 02:26:23;;;;;;;35.67;7.50;;;10.70;99.90;;;;;;4972508;28;20530;-64
2024/03/30 02:28:51;;;;;;;18.70;5.80;;;10.80;99.90;;;;;;4972048;28;20445;-65
2024/03/30 02:31:17;;;;;;;24.93;8.43;;;11.00;99.90;;;;;;4967165;28;20185;-64
2024/03/30 02:33:43;;;;;;;31.63;7.90;;;11.10;99.90;;;;;;4953550;28;20471;-66
2024/03/30 02:36:09;;;;;;;26.93;8.07;;;11.20;99.90;;;;;;4953607;29;20930;-65
2024/03/30 02:38:35;;;;;;;37.30;9.13;;;11.20;99.90;;;;;;4952780;28;20173;-65
2024/03/30 02:41:01;;;;;;;41.27;8.13;;;11.20;99.90;;;;;;4963260;28;20852;-65
2024/03/30 02:43:26;;;;;;;37.47;8.00;;;11.20;99.90;;;;;;4973065;28;20427;-64
2024/03/30 02:45:52;;;;;;;35.67;8.43;;;11.20;99.90;;;;;;4973703;28;20187;-66
2024/03/30 02:48:17;;;;;;;34.57;7.23;;;11.20;99.90;;;;;;4956490;29;20173;-65
2024/03/30 02:50:43;;;;;;;26.00;7.97;;;11.10;99.90;;;;;;4957048;29;20576;-65
2024/03/30 02:53:08;;;;;;;46.93;9.70;;;11.00;99.90;;;;;;4966586;28;20267;-66
2024/03/30 02:55:34;;;;;;;27.60;6.47;;;11.00;99.90;;;;;;4976503;28;20179;-66
2024/03/30 02:58:00;;;;;;;30.50;9.37;;;10.90;99.90;;;;;;4975687;28;20184;-65
2024/03/30 03:00:25;;;;;;;33.43;9.20;;;10.90;99.90;;;;;;4976244;28;20544;-66
2024/03/30 03:02:52;;;;;;;32.83;9.77;;;10.80;99.90;;;;;;4975590;28;20270;-65
2024/03/30 03:05:18;;;;;;;40.80;7.00;;;10.80;99.90;;;;;;4976148;28;20540;-65
2024/03/30 03:07:43;;;;;;;36.30;9.10;;;10.70;99.90;;;;;;4974007;28;20550;-65
2024/03/30 03:10:09;;;;;;;28.93;6.47;;;10.70;99.90;;;;;;4975890;28;20704;-65
2024/03/30 03:12:34;;;;;;;29.13;7.67;;;10.70;99.90;;;;;;4975501;28;20190;-66
2024/03/30 03:15:04;;;;;;;29.30;7.30;;;10.70;99.90;;;;;;4975996;28;20692;-65
2024/03/30 03:17:30;;;;;;;27.87;8.40;;;10.80;99.90;;;;;;4973681;28;20283;-65
2024/03/30 03:19:55;;;;;;;31.07;7.60;;;10.80;99.90;;;;;;4975834;28;20448;-65
2024/03/30 03:22:21;;;;;;;24.70;6.23;;;10.80;99.90;;;;;;4975774;28;20766;-67
2024/03/30 03:24:46;;;;;;;35.70;7.57;;;10.80;99.90;;;;;;4975890;28;20188;-65
2024/03/30 03:27:12;;;;;;;30.37;9.40;;;10.80;99.90;;;;;;4969170;28;20187;-65
2024/03/30 03:29:37;;;;;;;23.90;6.10;;;10.80;99.90;;;;;;4956393;29;20253;-65
2024/03/30 03:32:03;;;;;;;30.73;8.40;;;10.80;99.90;;;;;;4964097;28;20173;-65
2024/03/30 03:34:28;;;;;;;32.63;7.83;;;10.80;99.90;;;;;;4975506;28;20235;-65
2024/03/30 03:36:54;;;;;;;42.97;9.60;;;10.80;99.90;;;;;;4974919;28;20646;-67
2024/03/30 03:39:22;;;;;;;32.90;7.60;;;10.80;99.90;;;;;;4964282;28;20209;-65
2024/03/30 03:41:48;;;;;;;25.53;9.50;;;10.70;99.90;;;;;;4956520;28;20634;-66
2024/03/30 03:44:13;;;;;;;29.53;6.63;;;10.80;99.90;;;;;;4956326;28;20424;-66
2024/03/30 03:46:39;;;;;;;27.30;6.70;;;10.80;99.90;;;;;;4955597;28;20251;-65
2024/03/30 03:49:04;;;;;;;31.07;6.87;;;10.80;99.90;;;;;;4955999;29;20559;-65
2024/03/30 03:51:30;;;;;;;39.73;7.90;;;10.80;99.90;;;;;;4956040;29;20177;-66
2024/03/30 03:53:55;;;;;;;32.67;7.53;;;10.80;99.90;;;;;;4955966;28;20204;-65
2024/03/30 03:56:21;;;;;;;22.43;6.60;;;10.90;99.90;;;;;;4955257;28;20196;-65
2024/03/30 03:58:47;;;;;;;37.47;7.20;;;10.90;99.90;;;;;;4974653;28;20657;-65
2024/03/30 04:01:14;;;;;;;19.03;6.30;;;10.90;99.90;;;;;;4975257;28;20267;-66
2024/03/30 04:03:41;;;;;;;23.90;7.03;;;10.80;99.90;;;;;;4958227;28;20191;-65
2024/03/30 04:06:08;;;;;;;24.00;9.00;;;10.80;99.90;;;;;;4955838;28;20488;-65
2024/03/30 04:08:34;;;;;;;26.80;7.50;;;10.90;99.90;;;;;;4954619;28;20424;-66
2024/03/30 04:11:00;;;;;;;36.73;8.30;;;11.00;99.90;;;;;;4956122;28;20948;-66
2024/03/30 04:13:26;;;;;;;23.03;6.60;;;11.00;99.90;;;;;;4955784;29;20267;-66
2024/03/30 04:15:51;;;;;;;28.13;6.10;;;11.00;99.90;;;;;;4955683;29;20914;-67
2024/03/30 04:18:17;;;;;;;32.07;6.70;;;11.00;99.90;;;;;;4966348;28;20234;-65
2024/03/30 04:20:42;;;;;;;28.57;6.13;;;10.90;99.90;;;;;;4974671;28;20255;-66
2024/03/30 04:23:08;;;;;;;27.07;6.30;;;10.90;99.90;;;;;;4974765;28;20184;-65
2024/03/30 04:25:33;;;;;;;33.60;5.40;;;11.00;99.90;;;;;;4974955;28;20552;-64
2024/03/30 04:27:59;;;;;;;21.00;5.83;;;11.10;99.90;;;;;;4964686;28;20214;-65
2024/03/30 04:30:24;;;;;;;24.53;5.30;;;11.30;99.90;;;;;;4955285;29;20205;-65
2024/03/30 04:32:50;;;;;;;27.50;6.87;;;11.50;99.90;;;;;;4955397;28;20183;-67
2024/03/30 04:35:15;;;;;;;25.10;5.30;;;11.60;99.90;;;;;;4955188;29;20588;-66
2024/03/30 04:37:41;;;;;;;28.97;5.23;;;11.60;99.90;;;;;;4954445;29;20312;-65
2024/03/30 04:40:07;;;;;;;24.53;6.50;;;11.50;99.90;;;;;;4963130;28;20242;-65
2024/03/30 04:42:32;;;;;;;24.03;5.53;;;11.50;99.90;;;;;;4974488;28;20271;-66
2024/03/30 04:44:58;;;;;;;26.97;7.63;;;11.50;99.90;;;;;;4974420;28;20883;-65
2024/03/30 04:47:23;;;;;;;24.93;6.33;;;11.40;99.90;;;;;;4987695;28;20216;-65
2024/03/30 04:49:49;;;;;;;25.93;6.40;;;11.30;99.90;;;;;;4954808;29;20201;-65
2024/03/30 04:52:15;;;;;;;24.27;6.00;;;11.20;99.90;;;;;;4954898;28;20899;-66
2024/03/30 04:54:40;;;;;;;30.43;5.70;;;11.20;99.90;;;;;;4954807;29;20196;-65
2024/03/30 04:57:06;;;;;;;22.00;6.00;;;11.10;99.90;;;;;;4954184;29;20249;-65
2024/03/30 04:59:31;;;;;;;26.53;8.00;;;11.00;99.90;;;;;;4954915;28;20208;-67
2024/03/30 05:01:57;;;;;;;20.47;5.63;;;10.80;99.90;;;;;;4954759;29;20181;-65
2024/03/30 05:04:22;;;;;;;30.53;5.53;;;10.80;99.90;;;;;;4968875;28;20168;-65
2024/03/30 05:06:48;;;;;;;24.43;6.80;;;10.80;99.90;;;;;;4972665;28;20172;-65
2024/03/30 05:09:14;;;;;;;24.80;6.30;;;10.90;99.90;;;;;;4973520;28;20747;-66
2024/03/30 05:11:40;;;;;;;32.03;7.10;;;11.00;99.90;;;;;;4955199;28;20511;-64
2024/03/30 05:14:05;;;;;;;26.90;6.30;;;11.00;99.90;;;;;;4954446;29;20299;-64
2024/03/30 05:16:30;;;;;;;38.73;5.67;;;10.90;99.90;;;;;;4953804;29;20177;-67
2024/03/30 05:18:59;;;;;;;18.47;5.17;;;10.90;99.90;;;;;;4954544;28;20208;-66
2024/03/30 05:21:26;;;;;;;26.13;6.00;;;10.90;99.90;;;;;;4954440;28;20635;-65
2024/03/30 05:23:51;;;;;;;25.40;5.60;;;10.90;99.90;;;;;;4954448;28;20421;-65
2024/03/30 05:26:16;;;;;;;21.90;6.33;;;10.90;99.90;;;;;;4954119;29;20512;-66
2024/03/30 05:28:42;;;;;;;15.87;5.23;;;10.90;99.90;;;;;;4960526;28;20613;-66
2024/03/30 05:31:19;;;;;;;19.10;4.10;;;11.00;99.90;;;;;;4973654;28;20271;-65
2024/03/30 05:33:45;;;;;;;20.17;5.00;;;11.00;99.90;;;;;;4967805;28;20295;-66
2024/03/30 05:36:10;;;;;;;22.70;5.00;;;11.10;99.90;;;;;;4954216;29;20523;-64
2024/03/30 05:38:36;;;;;;;22.40;5.57;;;11.20;99.90;;;;;;4953460;29;20661;-65
2024/03/30 05:41:01;;;;;;;25.10;6.50;;;11.30;99.90;;;;;;4954434;29;20173;-65
2024/03/30 05:43:27;;;;;;;27.70;5.90;;;11.40;99.90;;;;;;4954307;28;20193;-65
2024/03/30 05:45:56;;;;;;;19.43;4.50;;;11.50;99.90;;;;;;4954163;29;20173;-65
2024/03/30 05:48:22;;;;;;;24.23;5.20;;;11.60;99.90;;;;;;4953530;28;20168;-65
2024/03/30 05:50:48;;;;;;;26.70;6.90;;;11.80;99.90;;;;;;4973373;28;20791;-65
2024/03/30 05:53:15;;;;;;;23.37;5.17;;;11.90;99.90;;;;;;4973213;28;20451;-65
2024/03/30 05:55:40;;;;;;;23.57;5.63;;;12.10;99.90;;;;;;4968765;28;20177;-67
2024/03/30 05:58:09;;;;;;;28.73;7.30;;;12.20;99.90;;;;;;4953205;29;20451;-65
2024/03/30 06:00:35;;;;;;;19.23;4.90;;;12.30;99.90;;;;;;4953892;28;20189;-68
2024/03/30 06:03:00;;;;;;;32.83;7.30;;;12.40;99.90;;;;;;4953802;28;20976;-65
2024/03/30 06:05:26;;;;;;;24.87;5.90;;;12.60;99.90;;;;;;4954113;28;20429;-65
2024/03/30 06:07:51;;;;;;;26.50;9.40;;;12.80;99.90;;;;;;4953131;29;20169;-66
2024/03/30 06:10:17;;;;;;;19.83;7.07;;;13.00;99.90;;;;;;4998760;23;20289;-67
2024/03/30 06:12:42;;;;;;;23.70;6.13;;;13.30;99.90;;;;;;4992525;28;20168;-67
2024/03/30 06:15:08;;;;;;;21.80;4.97;;;13.50;99.90;;;;;;4980019;28;20215;-67
2024/03/30 06:17:35;;;;;;;20.60;6.27;;;13.60;99.90;;;;;;4972781;28;20574;-67
2024/03/30 06:20:01;;;;;;;23.90;5.77;;;13.80;99.90;;;;;;4985822;28;20573;-67
2024/03/30 06:22:26;;;;;;;28.83;5.90;;;13.90;99.90;;;;;;4996408;28;20431;-67
2024/03/30 06:24:52;;;;;;;21.40;5.70;;;14.00;99.30;;;;;;4996469;28;20186;-67
2024/03/30 06:27:18;;;;;;;19.67;4.70;;;14.00;98.20;;;;;;4979789;28;20523;-67
2024/03/30 06:29:43;;;;;;;22.90;5.40;;;14.00;97.50;;;;;;4976694;28;20462;-67
2024/03/30 06:32:09;;;;;;;28.60;6.50;;;14.00;97.70;;;;;;4976904;28;20184;-67
2024/03/30 06:34:34;;;;;;;20.63;5.20;;;14.10;97.90;;;;;;4980690;28;20213;-67
2024/03/30 06:37:00;;;;;;;24.07;5.03;;;14.20;96.70;;;;;;4995509;28;20183;-67
2024/03/30 06:43:40;;;;;;;23.00;6.60;;;14.30;96.90;;;;;;4996112;28;20187;-67
2024/03/30 06:44:55;;;;;;;27.87;6.60;;;14.40;96.60;;;;;;4989085;28;20820;-67
2024/03/30 06:47:20;;;;;;;14.17;5.80;;;14.40;94.70;;;;;;4975764;28;20419;-67
2024/03/30 06:49:46;;;;;;;23.57;7.60;;;14.50;92.60;;;;;;4976889;28;20200;-66
2024/03/30 06:52:11;;;;;;;24.63;6.23;;;14.50;92.80;;;;;;4976508;28;20171;-67
2024/03/30 06:54:37;;;;;;;17.40;5.63;;;14.60;91.70;;;;;;4976356;28;20673;-67
2024/03/30 06:57:03;;;;;;;26.07;8.47;;;14.50;91.20;;;;;;4980058;28;20234;-66
2024/03/30 06:59:28;;;;;;;20.77;6.67;;;14.60;90.30;;;;;;4995678;28;20195;-66
2024/03/30 07:01:54;;;;;;;22.40;5.13;;;14.70;90.30;;;;;;4983238;28;20180;-66
2024/03/30 07:04:19;;;;;;;14.73;5.00;;;14.70;89.90;;;;;;4976408;28;20730;-66
2024/03/30 07:06:45;;;;;;;34.70;5.50;;;14.70;89.30;;;;;;4993015;28;20303;-67
2024/03/30 07:09:10;;;;;;;25.60;8.90;;;14.80;87.50;;;;;;4995434;28;20315;-66
2024/03/30 07:11:36;;;;;;;15.90;4.97;;;14.90;87.00;;;;;;4994850;28;20206;-67
2024/03/30 07:14:01;;;;;;;22.10;5.30;;;14.90;87.60;;;;;;4995426;28;20199;-67
2024/03/30 07:16:27;;;;;;;18.20;6.13;;;15.00;87.40;;;;;;4994727;28;20314;-67
2024/03/30 07:18:52;;;;;;;24.67;5.77;;;15.00;86.00;;;;;;4995474;28;20695;-66
2024/03/30 07:21:18;;;;;;;22.37;5.17;;;15.00;86.70;;;;;;4988323;28;20181;-66
2024/03/30 07:23:43;;;;;;;21.10;5.70;;;15.00;87.30;;;;;;4990612;28;20206;-67
2024/03/30 07:26:09;;;;;;;21.63;4.80;;;15.10;86.70;;;;;;4995151;28;20176;-66
2024/03/30 07:28:34;;;;;;;19.57;4.70;;;15.00;86.70;;;;;;4994529;28;20294;-67
2024/03/30 07:31:06;;;;;;;22.17;5.60;;;15.00;86.40;;;;;;4987707;28;20732;-67
2024/03/30 07:33:32;;;;;;;20.50;5.97;;;15.00;86.00;;;;;;4986629;28;20246;-67
2024/03/30 07:35:59;;;;;;;22.77;5.80;;;15.00;86.20;;;;;;4987633;28;20787;-67
2024/03/30 07:38:27;;;;;;;22.30;5.47;;;15.00;85.90;;;;;;4974980;28;20424;-67
2024/03/30 07:40:53;;;;;;;36.20;7.60;;;15.00;85.40;;;;;;4974362;28;20451;-66
2024/03/30 07:43:19;;;;;;;24.63;5.13;;;14.90;84.80;;;;;;4976134;28;20932;-66
2024/03/30 07:45:44;;;;;;;27.50;7.27;;;15.00;84.80;;;;;;4975494;28;20207;-67
2024/03/30 07:48:10;;;;;;;28.83;7.27;;;15.00;83.90;;;;;;4974815;28;20173;-68
2024/03/30 07:50:36;;;;;;;23.00;6.87;;;15.00;83.30;;;;;;4977594;28;20196;-66
2024/03/30 07:53:02;;;;;;;22.90;7.10;;;15.00;83.60;;;;;;4994767;28;20839;-66
2024/03/30 07:55:31;;;;;;;37.40;7.10;;;15.00;83.10;;;;;;4994668;28;20199;-67
2024/03/30 07:57:57;;;;;;;31.93;7.70;;;15.00;84.40;;;;;;4994018;28;20418;-66
2024/03/30 08:00:23;;;;;;;32.03;8.30;;;15.00;84.60;;;;;;4994202;28;20442;-66
2024/03/30 08:02:49;;;;;;;26.33;7.33;;;15.00;81.80;;;;;;4975530;28;20175;-67
2024/03/30 08:05:16;;;;;;;32.70;6.47;;;15.00;81.10;;;;;;4975253;28;20431;-67
2024/03/30 08:07:41;;;;;;;38.77;10.57;;;15.00;81.70;;;;;;4991334;28;20559;-67
2024/03/30 08:10:07;;;;;;;39.00;7.90;;;15.10;80.10;;;;;;4994481;28;20470;-66
2024/03/30 08:12:32;;;;;;;34.07;10.10;;;15.10;79.50;;;;;;4992507;28;20182;-66
2024/03/30 08:14:58;;;;;;;22.77;6.30;;;15.10;80.60;;;;;;4974924;28;20228;-67
2024/03/30 08:17:23;;;;;;;33.23;7.80;;;15.10;79.80;;;;;;4974167;28;20256;-67
2024/03/30 08:19:49;;;;;;;21.73;8.50;;;15.10;79.60;;;;;;4974823;28;20669;-67
2024/03/30 08:22:14;;;;;;;42.50;7.00;;;15.10;78.90;;;;;;4986146;28;20183;-66
2024/03/30 08:24:40;;;;;;;35.03;8.17;;;15.10;78.60;;;;;;4994234;28;20175;-67
2024/03/30 08:27:05;;;;;;;30.70;7.40;;;15.10;78.70;;;;;;4993496;28;20210;-66
2024/03/30 08:29:31;;;;;;;35.20;7.20;;;15.10;78.10;;;;;;4993952;28;20203;-67
2024/03/30 08:31:57;;;;;;;33.13;7.10;;;15.20;79.60;;;;;;4985084;28;20184;-67
2024/03/30 08:34:23;;;;;;;34.93;8.50;;;15.20;78.80;;;;;;4974541;28;20211;-68
2024/03/30 08:36:48;;;;;;;28.23;6.83;;;15.20;82.30;;;;;;4979609;28;20426;-67
2024/03/30 08:39:14;;;;;;;31.63;9.00;;;15.20;84.60;;;;;;4993806;28;20200;-67
2024/03/30 08:41:39;;;;;;;32.77;8.87;;;15.20;87.90;;;;;;4993838;28;20182;-67
2024/03/30 08:44:05;;;;;;;29.37;8.03;;;15.10;86.60;;;;;;4982934;28;20176;-66
2024/03/30 08:46:31;;;;;;;29.07;8.03;;;15.10;86.60;;;;;;4973672;28;20256;-67
2024/03/30 08:49:04;;;;;;;31.57;9.90;;;15.10;88.80;;;;;;4974288;28;20169;-66
2024/03/30 08:51:30;;;;;;;38.70;8.00;;;15.10;88.90;;;;;;4974605;28;20435;-67
2024/03/30 08:54:02;;;;;;;32.57;9.70;;;15.00;90.00;;;;;;4974304;28;20478;-67
2024/03/30 08:56:29;;;;;;;32.33;8.13;;;15.00;89.30;;;;;;4973421;28;20176;-66
2024/03/30 08:58:55;;;;;;;30.77;8.00;;;15.00;90.40;;;;;;4974060;28;20422;-66
2024/03/30 09:01:20;;;;;;;27.50;8.23;;;15.00;91.50;;;;;;4973981;28;20510;-66
2024/03/30 09:03:46;;;;;;;29.63;8.33;;;15.00;91.50;;;;;;4993135;28;20199;-67
2024/03/30 09:06:11;;;;;;;31.70;9.53;;;15.00;91.30;;;;;;4993201;28;20175;-67
2024/03/30 09:08:37;;;;;;;33.27;8.20;;;14.90;92.30;;;;;;4975520;28;20184;-67
2024/03/30 09:11:03;;;;;;;36.10;9.23;;;14.90;93.10;;;;;;4973743;28;20218;-67
2024/03/30 09:13:28;;;;;;;28.77;7.73;;;14.90;93.20;;;;;;4974126;28;20660;-67
2024/03/30 09:15:54;;;;;;;24.30;6.70;;;14.90;94.00;;;;;;4973819;28;20216;-66
2024/03/30 09:18:22;;;;;;;26.43;8.03;;;14.90;95.20;;;;;;4972902;28;20575;-66
2024/03/30 09:20:48;;;;;;;53.63;9.17;;;14.90;95.70;;;;;;4973452;28;20439;-67
2024/03/30 09:23:13;;;;;;;28.47;8.07;;;15.00;94.80;;;;;;4984871;28;20497;-67
2024/03/30 09:25:39;;;;;;;32.57;8.80;;;15.00;94.60;;;;;;4992852;28;20673;-66
2024/03/30 09:28:05;;;;;;;31.13;8.53;;;15.10;95.20;;;;;;4992124;28;20176;-66
2024/03/30 09:30:30;;;;;;;28.97;6.23;;;15.10;95.70;;;;;;4992801;28;20485;-67
2024/03/30 09:32:56;;;;;;;27.00;6.33;;;15.10;95.60;;;;;;4983978;28;20187;-67
2024/03/30 09:35:21;;;;;;;27.93;8.00;;;15.20;95.40;;;;;;4973365;28;20212;-66
2024/03/30 09:37:47;;;;;;;28.90;7.57;;;15.10;98.10;;;;;;4973173;28;20176;-67
2024/03/30 09:40:13;;;;;;;41.27;12.37;;;15.00;99.90;;;;;;4973312;28;20678;-67
2024/03/30 09:42:42;;;;;;;29.67;10.80;;;15.00;99.90;;;;;;4973256;28;20423;-67
2024/03/30 09:45:12;;;;;;;38.13;9.90;;;15.00;99.70;;;;;;4983483;28;20171;-67
2024/03/30 09:47:42;;;;;;;41.30;11.50;;;15.10;99.90;;;;;;4991875;28;20465;-66
2024/03/30 09:50:09;;;;;;;31.27;11.30;;;15.10;99.90;;;;;;4992498;28;20814;-67
2024/03/30 09:52:39;;;;;;;48.80;8.60;;;15.10;99.20;;;;;;4990133;28;20419;-66
2024/03/30 09:55:10;;;;;;;30.13;9.27;;;15.10;98.70;;;;;;4979239;28;20509;-67
2024/03/30 09:57:40;;;;;;;39.10;9.00;;;15.10;99.40;;;;;;4991827;28;20942;-66
2024/03/30 10:00:09;;;;;;;40.40;8.90;;;15.10;99.90;;;;;;4991340;28;20839;-66
2024/03/30 10:02:35;;;;;;;34.77;8.93;;;15.00;98.90;;;;;;4992543;28;20438;-67
2024/03/30 10:05:01;;;;;;;31.40;7.87;;;14.90;97.10;;;;;;4986642;28;21015;-68
2024/03/30 10:07:36;;;;;;;39.53;11.73;;;14.90;96.40;;;;;;4972450;28;20204;-66
2024/03/30 10:10:14;;;;;;;38.10;10.73;;;14.80;96.00;;;;;;4992485;28;20877;-67
2024/03/30 10:13:03;;;;;;;28.77;8.57;;;14.80;93.80;;;;;;4992520;28;20450;-66
2024/03/30 10:15:51;;;;;;;31.00;9.50;;;14.90;90.90;;;;;;4992536;28;20462;-67
2024/03/30 10:18:17;;;;;;;43.73;12.60;;;15.10;90.70;;;;;;4991195;28;20453;-67
2024/03/30 10:20:42;;;;;;;41.87;9.90;;;15.20;92.30;;;;;;4975864;28;20444;-67
2024/03/30 10:23:08;;;;;;;26.13;8.13;;;15.40;94.10;;;;;;4976041;28;20204;-66
2024/03/30 10:25:37;;;;;;;31.23;7.50;;;15.40;94.90;;;;;;4992417;28;20175;-66
2024/03/30 10:28:05;;;;;;;43.93;15.43;;;15.50;95.30;;;;;;4991933;28;20430;-67
2024/03/30 10:30:30;;;;;;;41.37;14.93;;;15.50;95.50;;;;;;4978326;28;20451;-66
2024/03/30 10:33:01;;;;;;;46.40;12.33;;;15.50;95.30;;;;;;4973002;28;20523;-67
2024/03/30 10:35:26;;;;;;;48.70;15.00;;;15.50;94.90;;;;;;4972887;28;20517;-65
2024/03/30 10:37:52;;;;;;;37.37;12.87;;;15.40;95.50;;;;;;4972098;28;21009;-67
2024/03/30 10:40:18;;;;;;;44.13;14.40;;;15.40;95.90;;;;;;4991155;28;20571;-67
2024/03/30 10:42:43;;;;;;;35.40;12.03;;;15.50;96.70;;;;;;4992426;28;20310;-66
2024/03/30 10:45:09;;;;;;;55.63;23.23;;;15.60;97.40;;;;;;4992347;28;20180;-66
2024/03/30 10:47:36;;;;;;;51.63;20.00;;;15.50;97.60;;;;;;4991552;28;20180;-67
2024/03/30 10:50:02;;;;;;;48.50;17.67;;;15.60;98.70;;;;;;4976614;28;20218;-66
2024/03/30 10:52:28;;;;;;;53.83;22.67;;;15.60;99.10;;;;;;4972772;28;20947;-66
2024/03/30 10:54:55;;;;;;;50.23;20.43;;;15.70;99.90;;;;;;4973026;28;20459;-67
2024/03/30 10:57:22;;;;;;;44.43;15.60;;;15.70;99.90;;;;;;4989309;28;20180;-66
2024/03/30 10:59:48;;;;;;;37.23;14.30;;;15.80;99.90;;;;;;4979245;28;20444;-66
2024/03/30 11:02:24;;;;;;;37.53;13.87;;;15.70;99.20;;;;;;4972659;28;20427;-67
2024/03/30 11:04:53;;;;;;;29.87;9.87;;;15.60;98.10;;;;;;4972640;28;20434;-67
2024/03/30 11:07:21;;;;;;;40.10;10.03;;;15.50;95.20;;;;;;4975352;28;20442;-67
2024/03/30 11:09:47;;;;;;;39.03;8.80;;;15.50;94.50;;;;;;4987384;28;20473;-66
2024/03/30 11:12:14;;;;;;;33.80;12.60;;;15.60;93.60;;;;;;4995591;28;20422;-67
2024/03/30 11:14:40;;;;;;;27.90;7.37;;;15.70;94.80;;;;;;4995495;28;20493;-66
2024/03/30 11:17:42;;;;;;;51.03;8.50;;;15.90;92.40;;;;;;4994703;28;20415;-67
2024/03/30 11:20:11;;;;;;;29.70;8.00;;;16.10;90.00;;;;;;4992581;28;20454;-66
2024/03/30 11:22:52;;;;;;;39.50;7.80;;;16.20;92.10;;;;;;4976789;28;20423;-66
2024/03/30 11:25:21;;;;;;;43.40;9.90;;;16.30;93.80;;;;;;4991405;28;20458;-67
2024/03/30 11:27:50;;;;;;;37.17;12.10;;;16.30;94.90;;;;;;4992978;28;20514;-66
2024/03/30 11:30:47;;;;;;;30.43;9.50;;;16.30;94.30;;;;;;4987332;28;20530;-65
2024/03/30 11:33:21;;;;;;;41.70;12.17;;;16.20;92.30;;;;;;4980959;28;20439;-67
2024/03/30 11:36:28;;;;;;;28.10;13.33;;;16.40;92.50;;;;;;4995211;28;20946;-67
2024/03/30 11:39:09;;;;;;;43.43;11.13;;;16.50;92.90;;;;;;4992360;28;20415;-67
2024/03/30 11:41:36;;;;;;;41.50;11.77;;;16.60;92.20;;;;;;4975659;28;20905;-67
2024/03/30 11:44:12;;;;;;;44.73;19.10;;;16.70;92.40;;;;;;4975568;28;20412;-67
2024/03/30 11:46:39;;;;;;;43.33;11.67;;;16.90;94.60;;;;;;4974749;28;20451;-67
2024/03/30 11:49:07;;;;;;;29.27;10.20;;;17.00;96.10;;;;;;4975816;28;20435;-67
2024/03/30 11:51:38;;;;;;;45.60;12.30;;;17.10;97.00;;;;;;4975408;28;20935;-67
2024/03/30 11:54:18;;;;;;;32.90;12.27;;;17.10;96.30;;;;;;4976885;28;20822;-66
2024/03/30 11:57:01;;;;;;;34.10;8.27;;;17.30;95.20;;;;;;4994114;28;20997;-67
2024/03/30 11:59:32;;;;;;;35.53;10.00;;;17.40;94.10;;;;;;4994654;28;20482;-67
2024/03/30 12:01:57;;;;;;;32.10;9.53;;;17.50;92.90;;;;;;4981609;28;20789;-67
2024/03/30 12:04:23;;;;;;;35.17;9.50;;;17.60;93.20;;;;;;4975174;28;20423;-66
2024/03/30 12:06:52;;;;;;;35.33;10.90;;;17.80;93.30;;;;;;4974408;28;20262;-67
2024/03/30 12:12:04;;;;;;;28.67;10.07;;;17.90;94.00;;;;;;4973217;28;20475;-67
2024/03/30 12:14:30;;;;;;;36.40;12.90;;;17.90;95.70;;;;;;4955709;28;20468;-67
2024/03/30 12:16:56;;;;;;;25.97;12.40;;;18.00;94.70;;;;;;4954586;28;20499;-69
2024/03/30 12:19:21;;;;;;;41.33;15.87;;;18.00;92.50;;;;;;4957807;28;20173;-67
2024/03/30 12:21:47;;;;;;;33.07;10.07;;;18.00;91.80;;;;;;4974890;28;20960;-67
2024/03/30 12:24:14;;;;;;;43.37;14.10;;;17.90;90.30;;;;;;4974722;28;20176;-67
2024/03/30 12:26:41;;;;;;;34.60;11.43;;;17.90;92.10;;;;;;4973838;28;20427;-66
2024/03/30 12:29:06;;;;;;;32.33;10.50;;;17.90;96.10;;;;;;4974931;28;20490;-69
2024/03/30 12:31:32;;;;;;;34.23;12.50;;;17.80;99.90;;;;;;4974461;28;20948;-67
2024/03/30 12:33:58;;;;;;;36.83;10.40;;;17.60;99.90;;;;;;4974709;28;20227;-68
2024/03/30 12:36:23;;;;;;;29.07;11.23;;;17.50;99.90;;;;;;4974140;28;20186;-67
2024/03/30 12:38:49;;;;;;;33.40;11.97;;;17.50;99.90;;;;;;4974273;28;20176;-67